Terminal Aerodrome Forecast
Issued by NWS Quad Cities IA IL

Home | Current Version | Previous Version | Text Only | Print | Product List | Glossary On
Versions: 1 2 3 4 5 6 7 8 9 10 11 12 13 14 15 16 17
000
FTUS43 KDVN 220520
TAFMLI
TAF
KMLI 220520Z 2206/2306 17012KT P6SM FEW040 OVC060
     FM220700 17010KT P6SM VCSH OVC040
      TEMPO 2207/2211 3SM -RA BR BKN015 OVC030
     FM221100 33012KT P6SM -RA OVC025
     FM221600 31010KT P6SM BKN250=

USA.gov is the U.S. government's official web portal to all federal, state and local government web resources and services.